sensor_id;sensor_type;location;lat;lon;timestamp;pressure;altitude;pressure_sealevel;temperature
64394;BMP280;50712;49.506;10.400;2023-04-03T00:00:04;98875.91;;;6.38
64394;BMP280;50712;49.506;10.400;2023-04-03T00:00:36;98882.88;;;6.39
64394;BMP280;50712;49.506;10.400;2023-04-03T00:01:07;98873.97;;;6.38
64394;BMP280;50712;49.506;10.400;2023-04-03T00:01:38;98881.31;;;6.38
64394;BMP280;50712;49.506;10.400;2023-04-03T00:02:08;98879.41;;;6.38
64394;BMP280;50712;49.506;10.400;2023-04-03T00:02:38;98889.84;;;6.40
64394;BMP280;50712;49.506;10.400;2023-04-03T00:03:10;98884.44;;;6.40
64394;BMP280;50712;49.506;10.400;2023-04-03T00:03:40;98883.22;;;6.41
64394;BMP280;50712;49.506;10.400;2023-04-03T00:04:11;98877.47;;;6.39
64394;BMP280;50712;49.506;10.400;2023-04-03T00:04:41;98876.31;;;6.40
64394;BMP280;50712;49.506;10.400;2023-04-03T00:05:12;98875.09;;;6.41
64394;BMP280;50712;49.506;10.400;2023-04-03T00:05:42;98881.28;;;6.42
64394;BMP280;50712;49.506;10.400;2023-04-03T00:06:13;98880.91;;;6.43
64394;BMP280;50712;49.506;10.400;2023-04-03T00:06:43;98879.38;;;6.42
64394;BMP280;50712;49.506;10.400;2023-04-03T00:07:13;98877.44;;;6.43
64394;BMP280;50712;49.506;10.400;2023-04-03T00:07:45;98880.91;;;6.43
64394;BMP280;50712;49.506;10.400;2023-04-03T00:08:15;98882.44;;;6.44
64394;BMP280;50712;49.506;10.400;2023-04-03T00:08:45;98873.94;;;6.46
64394;BMP280;50712;49.506;10.400;2023-04-03T00:09:16;98882.06;;;6.46
64394;BMP280;50712;49.506;10.400;2023-04-03T00:09:46;98877.44;;;6.46
64394;BMP280;50712;49.506;10.400;2023-04-03T00:10:16;98882.84;;;6.46
64394;BMP280;50712;49.506;10.400;2023-04-03T00:10:47;98878.22;;;6.47
64394;BMP280;50712;49.506;10.400;2023-04-03T00:11:18;98876.28;;;6.47
64394;BMP280;50712;49.506;10.400;2023-04-03T00:11:48;98885.16;;;6.48
64394;BMP280;50712;49.506;10.400;2023-04-03T00:12:18;98883.22;;;6.48
64394;BMP280;50712;49.506;10.400;2023-04-03T00:12:49;98884.00;;;6.49
64394;BMP280;50712;49.506;10.400;2023-04-03T00:13:19;98880.50;;;6.48
64394;BMP280;50712;49.506;10.400;2023-04-03T00:13:49;98879.38;;;6.49
64394;BMP280;50712;49.506;10.400;2023-04-03T00:14:20;98875.88;;;6.49
64394;BMP280;50712;49.506;10.400;2023-04-03T00:14:50;98871.25;;;6.49
64394;BMP280;50712;49.506;10.400;2023-04-03T00:15:20;98880.13;;;6.50
64394;BMP280;50712;49.506;10.400;2023-04-03T00:15:51;98876.66;;;6.49
64394;BMP280;50712;49.506;10.400;2023-04-03T00:16:22;98877.44;;;6.50
64394;BMP280;50712;49.506;10.400;2023-04-03T00:16:52;98880.91;;;6.50
64394;BMP280;50712;49.506;10.400;2023-04-03T00:17:22;98875.50;;;6.50
64394;BMP280;50712;49.506;10.400;2023-04-03T00:17:53;98875.50;;;6.50
64394;BMP280;50712;49.506;10.400;2023-04-03T00:18:23;98874.31;;;6.51
64394;BMP280;50712;49.506;10.400;2023-04-03T00:18:54;98878.97;;;6.51
64394;BMP280;50712;49.506;10.400;2023-04-03T00:19:24;98879.75;;;6.51
64394;BMP280;50712;49.506;10.400;2023-04-03T00:19:55;98871.25;;;6.49
64394;BMP280;50712;49.506;10.400;2023-04-03T00:20:25;98876.66;;;6.49
64394;BMP280;50712;49.506;10.400;2023-04-03T00:20:57;98877.81;;;6.48
64394;BMP280;50712;49.506;10.400;2023-04-03T00:21:27;98875.50;;;6.47
64394;BMP280;50712;49.506;10.400;2023-04-03T00:21:58;98885.16;;;6.48
64394;BMP280;50712;49.506;10.400;2023-04-03T00:22:28;98876.66;;;6.46
64394;BMP280;50712;49.506;10.400;2023-04-03T00:22:59;98875.88;;;6.45
64394;BMP280;50712;49.506;10.400;2023-04-03T00:23:30;98877.03;;;6.44
64394;BMP280;50712;49.506;10.400;2023-04-03T00:24:00;98877.81;;;6.45
64394;BMP280;50712;49.506;10.400;2023-04-03T00:24:31;98881.69;;;6.44
64394;BMP280;50712;49.506;10.400;2023-04-03T00:25:01;98876.28;;;6.44
64394;BMP280;50712;49.506;10.400;2023-04-03T00:25:31;98873.56;;;6.44
64394;BMP280;50712;49.506;10.400;2023-04-03T00:26:02;98876.28;;;6.44
64394;BMP280;50712;49.506;10.400;2023-04-03T00:26:33;98876.66;;;6.42
64394;BMP280;50712;49.506;10.400;2023-04-03T00:27:03;98875.50;;;6.43
64394;BMP280;50712;49.506;10.400;2023-04-03T00:27:35;98877.44;;;6.43
64394;BMP280;50712;49.506;10.400;2023-04-03T00:28:06;98874.38;;;6.41
64394;BMP280;50712;49.506;10.400;2023-04-03T00:28:37;98879.38;;;6.42
64394;BMP280;50712;49.506;10.400;2023-04-03T00:29:07;98882.06;;;6.42
64394;BMP280;50712;49.506;10.400;2023-04-03T00:29:38;98881.28;;;6.42
64394;BMP280;50712;49.506;10.400;2023-04-03T00:30:08;98884.78;;;6.42
64394;BMP280;50712;49.506;10.400;2023-04-03T00:30:42;98873.59;;;6.40
64394;BMP280;50712;49.506;10.400;2023-04-03T00:31:14;98876.66;;;6.42
64394;BMP280;50712;49.506;10.400;2023-04-03T00:31:46;98868.53;;;6.42
64394;BMP280;50712;49.506;10.400;2023-04-03T00:32:16;98879.00;;;6.44
64394;BMP280;50712;49.506;10.400;2023-04-03T00:32:47;98877.44;;;6.43
64394;BMP280;50712;49.506;10.400;2023-04-03T00:33:18;98874.72;;;6.43
64394;BMP280;50712;49.506;10.400;2023-04-03T00:33:51;98878.22;;;6.43
64394;BMP280;50712;49.506;10.400;2023-04-03T00:34:21;98875.50;;;6.43
64394;BMP280;50712;49.506;10.400;2023-04-03T00:34:52;98875.50;;;6.43
64394;BMP280;50712;49.506;10.400;2023-04-03T00:35:22;98874.72;;;6.43
64394;BMP280;50712;49.506;10.400;2023-04-03T00:35:54;98871.25;;;6.42
64394;BMP280;50712;49.506;10.400;2023-04-03T00:36:24;98876.66;;;6.42
64394;BMP280;50712;49.506;10.400;2023-04-03T00:36:55;98869.31;;;6.43
64394;BMP280;50712;49.506;10.400;2023-04-03T00:37:25;98863.56;;;6.41
64394;BMP280;50712;49.506;10.400;2023-04-03T00:37:56;98868.19;;;6.40
64394;BMP280;50712;49.506;10.400;2023-04-03T00:38:26;98870.47;;;6.42
64394;BMP280;50712;49.506;10.400;2023-04-03T00:38:57;98867.41;;;6.40
64394;BMP280;50712;49.506;10.400;2023-04-03T00:39:27;98862.00;;;6.40
64394;BMP280;50712;49.506;10.400;2023-04-03T00:39:57;98861.22;;;6.39
64394;BMP280;50712;49.506;10.400;2023-04-03T00:40:32;98864.72;;;6.40
64394;BMP280;50712;49.506;10.400;2023-04-03T00:41:04;98860.44;;;6.38
64394;BMP280;50712;49.506;10.400;2023-04-03T00:41:35;98856.59;;;6.40
64394;BMP280;50712;49.506;10.400;2023-04-03T00:42:05;98858.53;;;6.39
64394;BMP280;50712;49.506;10.400;2023-04-03T00:42:36;98865.88;;;6.38
64394;BMP280;50712;49.506;10.400;2023-04-03T00:43:14;98862.00;;;6.40
64394;BMP280;50712;49.506;10.400;2023-04-03T00:43:47;98864.72;;;6.40
64394;BMP280;50712;49.506;10.400;2023-04-03T00:45:49;98865.88;;;6.38
64394;BMP280;50712;49.506;10.400;2023-04-03T00:46:20;98862.38;;;6.38
64394;BMP280;50712;49.506;10.400;2023-04-03T00:46:50;98862.38;;;6.38
64394;BMP280;50712;49.506;10.400;2023-04-03T00:47:21;98865.09;;;6.38
64394;BMP280;50712;49.506;10.400;2023-04-03T00:47:52;98870.91;;;6.36
64394;BMP280;50712;49.506;10.400;2023-04-03T00:48:31;98868.19;;;6.36
64394;BMP280;50712;49.506;10.400;2023-04-03T00:49:04;98864.72;;;6.36
64394;BMP280;50712;49.506;10.400;2023-04-03T00:49:35;98872.84;;;6.36
64394;BMP280;50712;49.506;10.400;2023-04-03T00:50:07;98865.88;;;6.35
64394;BMP280;50712;49.506;10.400;2023-04-03T00:50:38;98868.56;;;6.35
64394;BMP280;50712;49.506;10.400;2023-04-03T00:51:12;98866.63;;;6.35
64394;BMP280;50712;49.506;10.400;2023-04-03T00:51:46;98865.88;;;6.35
64394;BMP280;50712;49.506;10.400;2023-04-03T00:52:17;98868.56;;;6.35
64394;BMP280;50712;49.506;10.400;2023-04-03T00:52:51;98864.34;;;6.34
64394;BMP280;50712;49.506;10.400;2023-04-03T00:53:23;98870.50;;;6.34
64394;BMP280;50712;49.506;10.400;2023-04-03T00:53:58;98868.19;;;6.36
64394;BMP280;50712;49.506;10.400;2023-04-03T00:54:32;98867.41;;;6.36
64394;BMP280;50712;49.506;10.400;2023-04-03T00:55:06;98863.94;;;6.35
64394;BMP280;50712;49.506;10.400;2023-04-03T00:55:38;98865.50;;;6.36
64394;BMP280;50712;49.506;10.400;2023-04-03T00:56:10;98870.13;;;6.36
64394;BMP280;50712;49.506;10.400;2023-04-03T00:56:43;98868.97;;;6.37
64394;BMP280;50712;49.506;10.400;2023-04-03T00:57:14;98862.00;;;6.36
64394;BMP280;50712;49.506;10.400;2023-04-03T00:57:46;98865.09;;;6.38
64394;BMP280;50712;49.506;10.400;2023-04-03T00:58:18;98865.09;;;6.38
64394;BMP280;50712;49.506;10.400;2023-04-03T00:58:51;98862.38;;;6.38
64394;BMP280;50712;49.506;10.400;2023-04-03T00:59:24;98853.09;;;6.39
64394;BMP280;50712;49.506;10.400;2023-04-03T01:00:18;98854.25;;;6.38
64394;BMP280;50712;49.506;10.400;2023-04-03T01:00:53;98863.56;;;6.41
64394;BMP280;50712;49.506;10.400;2023-04-03T01:01:28;98855.81;;;6.39
64394;BMP280;50712;49.506;10.400;2023-04-03T01:01:59;98855.81;;;6.39
64394;BMP280;50712;49.506;10.400;2023-04-03T01:02:30;98856.59;;;6.40
64394;BMP280;50712;49.506;10.400;2023-04-03T01:03:01;98860.84;;;6.41
64394;BMP280;50712;49.506;10.400;2023-04-03T01:03:32;98858.16;;;6.41
64394;BMP280;50712;49.506;10.400;2023-04-03T01:04:04;98858.16;;;6.41
64394;BMP280;50712;49.506;10.400;2023-04-03T01:04:37;98858.88;;;6.41
64394;BMP280;50712;49.506;10.400;2023-04-03T01:05:08;98864.69;;;6.43
64394;BMP280;50712;49.506;10.400;2023-04-03T01:05:39;98859.25;;;6.43
64394;BMP280;50712;49.506;10.400;2023-04-03T01:06:10;98865.47;;;6.44
64394;BMP280;50712;49.506;10.400;2023-04-03T01:06:51;98863.50;;;6.44
64394;BMP280;50712;49.506;10.400;2023-04-03T01:07:22;98865.47;;;6.44
64394;BMP280;50712;49.506;10.400;2023-04-03T01:07:56;98861.56;;;6.45
64394;BMP280;50712;49.506;10.400;2023-04-03T01:08:27;98856.94;;;6.45
64394;BMP280;50712;49.506;10.400;2023-04-03T01:08:58;98866.59;;;6.46
64394;BMP280;50712;49.506;10.400;2023-04-03T01:09:30;98863.50;;;6.48
64394;BMP280;50712;49.506;10.400;2023-04-03T01:10:04;98861.97;;;6.47
64394;BMP280;50712;49.506;10.400;2023-04-03T01:10:37;98864.28;;;6.48
64394;BMP280;50712;49.506;10.400;2023-04-03T01:11:07;98860.41;;;6.49
64394;BMP280;50712;49.506;10.400;2023-04-03T01:11:38;98858.84;;;6.48
64394;BMP280;50712;49.506;10.400;2023-04-03T01:12:48;98859.25;;;6.50
64394;BMP280;50712;49.506;10.400;2023-04-03T01:13:21;98858.06;;;6.51
64394;BMP280;50712;49.506;10.400;2023-04-03T01:13:54;98862.34;;;6.52
64394;BMP280;50712;49.506;10.400;2023-04-03T01:14:25;98860.41;;;6.53
64394;BMP280;50712;49.506;10.400;2023-04-03T01:14:56;98865.03;;;6.52
64394;BMP280;50712;49.506;10.400;2023-04-03T01:15:29;98863.13;;;6.53
64394;BMP280;50712;49.506;10.400;2023-04-03T01:16:05;98865.38;;;6.54
64394;BMP280;50712;49.506;10.400;2023-04-03T01:16:36;98863.47;;;6.55
64394;BMP280;50712;49.506;10.400;2023-04-03T01:18:00;98865.00;;;6.56
64394;BMP280;50712;49.506;10.400;2023-04-03T01:18:31;98861.16;;;6.57
64394;BMP280;50712;49.506;10.400;2023-04-03T01:19:02;98870.03;;;6.57
64394;BMP280;50712;49.506;10.400;2023-04-03T01:19:35;98864.59;;;6.57
64394;BMP280;50712;49.506;10.400;2023-04-03T01:21:45;98873.91;;;6.60
64394;BMP280;50712;49.506;10.400;2023-04-03T01:22:40;98871.94;;;6.60
64394;BMP280;50712;49.506;10.400;2023-04-03T01:24:33;98866.94;;;6.62
64394;BMP280;50712;49.506;10.400;2023-04-03T01:25:08;98871.56;;;6.62
64394;BMP280;50712;49.506;10.400;2023-04-03T01:25:48;98869.66;;;6.62
64394;BMP280;50712;49.506;10.400;2023-04-03T01:26:21;98863.44;;;6.62
64394;BMP280;50712;49.506;10.400;2023-04-03T01:26:51;98871.56;;;6.62
64394;BMP280;50712;49.506;10.400;2023-04-03T01:27:21;98868.88;;;6.62
64394;BMP280;50712;49.506;10.400;2023-04-03T01:27:52;98870.81;;;6.61
64394;BMP280;50712;49.506;10.400;2023-04-03T01:28:24;98868.88;;;6.62
64394;BMP280;50712;49.506;10.400;2023-04-03T01:28:58;98866.53;;;6.60
64394;BMP280;50712;49.506;10.400;2023-04-03T01:29:29;98865.38;;;6.61
64394;BMP280;50712;49.506;10.400;2023-04-03T01:30:00;98865.38;;;6.61
64394;BMP280;50712;49.506;10.400;2023-04-03T01:30:32;98872.34;;;6.62
64394;BMP280;50712;49.506;10.400;2023-04-03T01:31:20;98869.25;;;6.60
64394;BMP280;50712;49.506;10.400;2023-04-03T01:32:01;98868.88;;;6.62
64394;BMP280;50712;49.506;10.400;2023-04-03T01:32:33;98870.03;;;6.61
64394;BMP280;50712;49.506;10.400;2023-04-03T01:33:04;98872.72;;;6.61
64394;BMP280;50712;49.506;10.400;2023-04-03T01:33:35;98862.69;;;6.61
64394;BMP280;50712;49.506;10.400;2023-04-03T01:34:06;98869.25;;;6.60
64394;BMP280;50712;49.506;10.400;2023-04-03T01:34:36;98865.78;;;6.60
64394;BMP280;50712;49.506;10.400;2023-04-03T01:35:07;98871.56;;;6.62
64394;BMP280;50712;49.506;10.400;2023-04-03T01:35:38;98873.50;;;6.61
64394;BMP280;50712;49.506;10.400;2023-04-03T01:36:09;98872.34;;;6.62
64394;BMP280;50712;49.506;10.400;2023-04-03T01:36:44;98875.84;;;6.63
64394;BMP280;50712;49.506;10.400;2023-04-03T01:37:14;98875.06;;;6.62
64394;BMP280;50712;49.506;10.400;2023-04-03T01:37:44;98870.81;;;6.61
64394;BMP280;50712;49.506;10.400;2023-04-03T01:38:15;98875.06;;;6.62
64394;BMP280;50712;49.506;10.400;2023-04-03T01:38:46;98879.28;;;6.63
64394;BMP280;50712;49.506;10.400;2023-04-03T01:39:16;98877.75;;;6.62
64394;BMP280;50712;49.506;10.400;2023-04-03T01:39:47;98873.13;;;6.63
64394;BMP280;50712;49.506;10.400;2023-04-03T01:40:18;98880.47;;;6.62
64394;BMP280;50712;49.506;10.400;2023-04-03T01:40:49;98878.53;;;6.63
64394;BMP280;50712;49.506;10.400;2023-04-03T01:41:20;98879.28;;;6.63
64394;BMP280;50712;49.506;10.400;2023-04-03T01:41:51;98875.84;;;6.63
64394;BMP280;50712;49.506;10.400;2023-04-03T01:42:29;98883.56;;;6.64
64394;BMP280;50712;49.506;10.400;2023-04-03T01:42:59;98876.59;;;6.63
64394;BMP280;50712;49.506;10.400;2023-04-03T01:43:30;98882.78;;;6.64
64394;BMP280;50712;49.506;10.400;2023-04-03T01:44:00;98886.25;;;6.64
64394;BMP280;50712;49.506;10.400;2023-04-03T01:44:31;98872.34;;;6.66
64394;BMP280;50712;49.506;10.400;2023-04-03T01:45:01;98873.50;;;6.65
64394;BMP280;50712;49.506;10.400;2023-04-03T01:45:32;98872.34;;;6.66
64394;BMP280;50712;49.506;10.400;2023-04-03T01:46:02;98877.75;;;6.66
64394;BMP280;50712;49.506;10.400;2023-04-03T01:46:32;98881.22;;;6.66
64394;BMP280;50712;49.506;10.400;2023-04-03T01:47:05;98873.09;;;6.66
64394;BMP280;50712;49.506;10.400;2023-04-03T01:47:37;98881.22;;;6.66
64394;BMP280;50712;49.506;10.400;2023-04-03T01:48:07;98875.81;;;6.66
64394;BMP280;50712;49.506;10.400;2023-04-03T01:48:38;98880.47;;;6.66
64394;BMP280;50712;49.506;10.400;2023-04-03T01:49:08;98878.91;;;6.65
64394;BMP280;50712;49.506;10.400;2023-04-03T01:49:38;98880.06;;;6.64
64394;BMP280;50712;49.506;10.400;2023-04-03T01:50:09;98876.59;;;6.63
64394;BMP280;50712;49.506;10.400;2023-04-03T01:50:40;98878.53;;;6.63
64394;BMP280;50712;49.506;10.400;2023-04-03T01:51:11;98875.06;;;6.62
64394;BMP280;50712;49.506;10.400;2023-04-03T01:51:41;98878.53;;;6.63
64394;BMP280;50712;49.506;10.400;2023-04-03T01:52:12;98877.75;;;6.62
64394;BMP280;50712;49.506;10.400;2023-04-03T01:52:42;98882.41;;;6.62
64394;BMP280;50712;49.506;10.400;2023-04-03T01:53:13;98879.69;;;6.62
64394;BMP280;50712;49.506;10.400;2023-04-03T01:53:44;98883.19;;;6.62
64394;BMP280;50712;49.506;10.400;2023-04-03T01:54:14;98885.13;;;6.62
64394;BMP280;50712;49.506;10.400;2023-04-03T01:54:45;98881.63;;;6.61
64394;BMP280;50712;49.506;10.400;2023-04-03T01:55:15;98881.63;;;6.61
64394;BMP280;50712;49.506;10.400;2023-04-03T01:55:46;98887.81;;;6.62
64394;BMP280;50712;49.506;10.400;2023-04-03T01:56:18;98881.63;;;6.61
64394;BMP280;50712;49.506;10.400;2023-04-03T01:56:49;98885.13;;;6.62
64394;BMP280;50712;49.506;10.400;2023-04-03T01:57:19;98885.88;;;6.62
64394;BMP280;50712;49.506;10.400;2023-04-03T01:57:50;98878.91;;;6.61
64394;BMP280;50712;49.506;10.400;2023-04-03T01:58:20;98884.34;;;6.61
64394;BMP280;50712;49.506;10.400;2023-04-03T01:58:52;98878.91;;;6.61
64394;BMP280;50712;49.506;10.400;2023-04-03T01:59:22;98883.19;;;6.62
64394;BMP280;50712;49.506;10.400;2023-04-03T01:59:53;98879.69;;;6.62
64394;BMP280;50712;49.506;10.400;2023-04-03T02:00:23;98877.00;;;6.62
64394;BMP280;50712;49.506;10.400;2023-04-03T02:00:54;98882.41;;;6.62
64394;BMP280;50712;49.506;10.400;2023-04-03T02:01:24;98883.19;;;6.62
64394;BMP280;50712;49.506;10.400;2023-04-03T02:01:55;98880.47;;;6.62
64394;BMP280;50712;49.506;10.400;2023-04-03T02:02:26;98881.63;;;6.61
64394;BMP280;50712;49.506;10.400;2023-04-03T02:02:56;98882.78;;;6.60
64394;BMP280;50712;49.506;10.400;2023-04-03T02:03:27;98880.06;;;6.60
64394;BMP280;50712;49.506;10.400;2023-04-03T02:03:57;98880.06;;;6.60
64394;BMP280;50712;49.506;10.400;2023-04-03T02:04:28;98881.25;;;6.59
64394;BMP280;50712;49.506;10.400;2023-04-03T02:04:58;98883.97;;;6.59
64394;BMP280;50712;49.506;10.400;2023-04-03T02:05:28;98882.78;;;6.60
64394;BMP280;50712;49.506;10.400;2023-04-03T02:05:59;98875.06;;;6.59
64394;BMP280;50712;49.506;10.400;2023-04-03T02:06:30;98882.41;;;6.58
64394;BMP280;50712;49.506;10.400;2023-04-03T02:07:00;98881.63;;;6.58
64394;BMP280;50712;49.506;10.400;2023-04-03T02:07:30;98878.94;;;6.58
64394;BMP280;50712;49.506;10.400;2023-04-03T02:08:01;98878.94;;;6.58
64394;BMP280;50712;49.506;10.400;2023-04-03T02:08:32;98877.00;;;6.58
64394;BMP280;50712;49.506;10.400;2023-04-03T02:09:03;98883.97;;;6.59
64394;BMP280;50712;49.506;10.400;2023-04-03T02:09:34;98885.13;;;6.58
64394;BMP280;50712;49.506;10.400;2023-04-03T02:10:05;98884.34;;;6.58
64394;BMP280;50712;49.506;10.400;2023-04-03T02:10:35;98882.81;;;6.57
64394;BMP280;50712;49.506;10.400;2023-04-03T02:11:05;98880.84;;;6.57
64394;BMP280;50712;49.506;10.400;2023-04-03T02:11:37;98883.97;;;6.56
64394;BMP280;50712;49.506;10.400;2023-04-03T02:12:08;98880.47;;;6.55
64394;BMP280;50712;49.506;10.400;2023-04-03T02:12:38;98889.38;;;6.56
64394;BMP280;50712;49.506;10.400;2023-04-03T02:13:09;98882.41;;;6.55
64394;BMP280;50712;49.506;10.400;2023-04-03T02:13:39;98881.63;;;6.54
64394;BMP280;50712;49.506;10.400;2023-04-03T02:14:09;98877.44;;;6.53
64394;BMP280;50712;49.506;10.400;2023-04-03T02:14:40;98883.22;;;6.52
64394;BMP280;50712;49.506;10.400;2023-04-03T02:15:15;98883.22;;;6.52
64394;BMP280;50712;49.506;10.400;2023-04-03T02:15:45;98881.66;;;6.51
64394;BMP280;50712;49.506;10.400;2023-04-03T02:16:18;98876.66;;;6.49
64394;BMP280;50712;49.506;10.400;2023-04-03T02:16:48;98887.50;;;6.49
64394;BMP280;50712;49.506;10.400;2023-04-03T02:17:19;98877.03;;;6.48
64394;BMP280;50712;49.506;10.400;2023-04-03T02:17:50;98879.00;;;6.47
64394;BMP280;50712;49.506;10.400;2023-04-03T02:18:20;98880.91;;;6.47
64394;BMP280;50712;49.506;10.400;2023-04-03T02:18:50;98883.63;;;6.47
64394;BMP280;50712;49.506;10.400;2023-04-03T02:19:21;98884.78;;;6.46
64394;BMP280;50712;49.506;10.400;2023-04-03T02:19:51;98888.25;;;6.46
64394;BMP280;50712;49.506;10.400;2023-04-03T02:20:22;98878.59;;;6.45
64394;BMP280;50712;49.506;10.400;2023-04-03T02:20:53;98885.94;;;6.45
64394;BMP280;50712;49.506;10.400;2023-04-03T02:21:23;98883.22;;;6.45
64394;BMP280;50712;49.506;10.400;2023-04-03T02:21:53;98888.63;;;6.45
64394;BMP280;50712;49.506;10.400;2023-04-03T02:22:24;98883.22;;;6.45
64394;BMP280;50712;49.506;10.400;2023-04-03T02:22:55;98880.50;;;6.45
64394;BMP280;50712;49.506;10.400;2023-04-03T02:23:25;98880.50;;;6.45
64394;BMP280;50712;49.506;10.400;2023-04-03T02:23:56;98892.13;;;6.45
64394;BMP280;50712;49.506;10.400;2023-04-03T02:24:27;98884.41;;;6.44
64394;BMP280;50712;49.506;10.400;2023-04-03T02:24:57;98880.16;;;6.43
64394;BMP280;50712;49.506;10.400;2023-04-03T02:25:28;98882.84;;;6.43
64394;BMP280;50712;49.506;10.400;2023-04-03T02:26:04;98882.84;;;6.43
64394;BMP280;50712;49.506;10.400;2023-04-03T02:26:36;98893.69;;;6.43
64394;BMP280;50712;49.506;10.400;2023-04-03T02:27:06;98880.94;;;6.40
64394;BMP280;50712;49.506;10.400;2023-04-03T02:27:37;98876.69;;;6.38
64394;BMP280;50712;49.506;10.400;2023-04-03T02:28:07;98882.88;;;6.39
64394;BMP280;50712;49.506;10.400;2023-04-03T02:28:37;98891.41;;;6.38
64394;BMP280;50712;49.506;10.400;2023-04-03T02:29:08;98883.28;;;6.38
64394;BMP280;50712;49.506;10.400;2023-04-03T02:29:39;98878.25;;;6.36
64394;BMP280;50712;49.506;10.400;2023-04-03T02:30:10;98889.06;;;6.36
64394;BMP280;50712;49.506;10.400;2023-04-03T02:30:41;98887.53;;;6.35
64394;BMP280;50712;49.506;10.400;2023-04-03T02:31:11;98890.22;;;6.35
64394;BMP280;50712;49.506;10.400;2023-04-03T02:31:43;98883.28;;;6.34
64394;BMP280;50712;49.506;10.400;2023-04-03T02:32:13;98888.69;;;6.34
64394;BMP280;50712;49.506;10.400;2023-04-03T02:32:44;98888.69;;;6.34
64394;BMP280;50712;49.506;10.400;2023-04-03T02:33:15;98884.81;;;6.35
64394;BMP280;50712;49.506;10.400;2023-04-03T02:33:45;98881.31;;;6.34
64394;BMP280;50712;49.506;10.400;2023-04-03T02:34:18;98886.75;;;6.34
64394;BMP280;50712;49.506;10.400;2023-04-03T02:34:49;98887.53;;;6.35
64394;BMP280;50712;49.506;10.400;2023-04-03T02:35:21;98894.47;;;6.36
64394;BMP280;50712;49.506;10.400;2023-04-03T02:35:53;98891.00;;;6.35
64394;BMP280;50712;49.506;10.400;2023-04-03T02:36:27;98891.78;;;6.36
64394;BMP280;50712;49.506;10.400;2023-04-03T02:37:01;98889.84;;;6.36
64394;BMP280;50712;49.506;10.400;2023-04-03T02:37:32;98894.47;;;6.36
64394;BMP280;50712;49.506;10.400;2023-04-03T02:38:02;98888.28;;;6.35
64394;BMP280;50712;49.506;10.400;2023-04-03T02:38:33;98888.28;;;6.35
64394;BMP280;50712;49.506;10.400;2023-04-03T02:39:05;98884.81;;;6.35
64394;BMP280;50712;49.506;10.400;2023-04-03T02:39:35;98892.94;;;6.35
64394;BMP280;50712;49.506;10.400;2023-04-03T02:40:06;98889.44;;;6.34
64394;BMP280;50712;49.506;10.400;2023-04-03T02:40:39;98886.75;;;6.34
64394;BMP280;50712;49.506;10.400;2023-04-03T02:41:10;98887.53;;;6.35
64394;BMP280;50712;49.506;10.400;2023-04-03T02:41:41;98890.22;;;6.35
64394;BMP280;50712;49.506;10.400;2023-04-03T02:42:17;98892.94;;;6.35
64394;BMP280;50712;49.506;10.400;2023-04-03T02:42:48;98893.72;;;6.35
64394;BMP280;50712;49.506;10.400;2023-04-03T02:43:18;98890.22;;;6.35
64394;BMP280;50712;49.506;10.400;2023-04-03T02:43:49;98888.69;;;6.34
64394;BMP280;50712;49.506;10.400;2023-04-03T02:44:20;98884.81;;;6.35
64394;BMP280;50712;49.506;10.400;2023-04-03T02:44:50;98886.75;;;6.34
64394;BMP280;50712;49.506;10.400;2023-04-03T02:45:21;98892.94;;;6.35
64394;BMP280;50712;49.506;10.400;2023-04-03T02:45:51;98892.16;;;6.34
64394;BMP280;50712;49.506;10.400;2023-04-03T02:46:21;98887.91;;;6.33
64394;BMP280;50712;49.506;10.400;2023-04-03T02:46:52;98889.44;;;6.34
64394;BMP280;50712;49.506;10.400;2023-04-03T02:47:22;98890.63;;;6.33
64394;BMP280;50712;49.506;10.400;2023-04-03T02:47:53;98893.34;;;6.33
64394;BMP280;50712;49.506;10.400;2023-04-03T02:48:23;98889.84;;;6.33
64394;BMP280;50712;49.506;10.400;2023-04-03T02:48:54;98889.06;;;6.32
64394;BMP280;50712;49.506;10.400;2023-04-03T02:49:24;98892.56;;;6.33
64394;BMP280;50712;49.506;10.400;2023-04-03T02:49:55;98886.38;;;6.32
64394;BMP280;50712;49.506;10.400;2023-04-03T02:50:25;98890.22;;;6.31
64394;BMP280;50712;49.506;10.400;2023-04-03T02:50:55;98889.47;;;6.31
64394;BMP280;50712;49.506;10.400;2023-04-03T02:51:26;98885.22;;;6.30
64394;BMP280;50712;49.506;10.400;2023-04-03T02:51:57;98897.97;;;6.29
64394;BMP280;50712;49.506;10.400;2023-04-03T02:52:27;98891.00;;;6.28
64394;BMP280;50712;49.506;10.400;2023-04-03T02:53:01;98897.19;;;6.29
64394;BMP280;50712;49.506;10.400;2023-04-03T02:53:32;98890.25;;;6.28
64394;BMP280;50712;49.506;10.400;2023-04-03T02:54:07;98895.66;;;6.28
64394;BMP280;50712;49.506;10.400;2023-04-03T02:54:41;98889.47;;;6.27
64394;BMP280;50712;49.506;10.400;2023-04-03T02:55:14;98892.19;;;6.27
64394;BMP280;50712;49.506;10.400;2023-04-03T02:55:45;98888.28;;;6.28
64394;BMP280;50712;49.506;10.400;2023-04-03T02:56:15;98896.41;;;6.28
64394;BMP280;50712;49.506;10.400;2023-04-03T02:56:47;98897.19;;;6.29
64394;BMP280;50712;49.506;10.400;2023-04-03T02:57:17;98895.66;;;6.28
64394;BMP280;50712;49.506;10.400;2023-04-03T02:57:47;98894.47;;;6.29
64394;BMP280;50712;49.506;10.400;2023-04-03T02:58:18;98895.66;;;6.28
64394;BMP280;50712;49.506;10.400;2023-04-03T02:58:49;98903.78;;;6.28
64394;BMP280;50712;49.506;10.400;2023-04-03T02:59:21;98903.00;;;6.27
64394;BMP280;50712;49.506;10.400;2023-04-03T02:59:51;98900.28;;;6.27
64394;BMP280;50712;49.506;10.400;2023-04-03T03:00:22;98901.47;;;6.26
64394;BMP280;50712;49.506;10.400;2023-04-03T03:00:53;98894.09;;;6.27
64394;BMP280;50712;49.506;10.400;2023-04-03T03:01:23;98890.66;;;6.26
64394;BMP280;50712;49.506;10.400;2023-04-03T03:01:54;98899.91;;;6.25
64394;BMP280;50712;49.506;10.400;2023-04-03T03:02:25;98898.41;;;6.24
64394;BMP280;50712;49.506;10.400;2023-04-03T03:02:56;98893.72;;;6.25
64394;BMP280;50712;49.506;10.400;2023-04-03T03:03:26;98891.81;;;6.25
64394;BMP280;50712;49.506;10.400;2023-04-03T03:03:57;98896.44;;;6.25
64394;BMP280;50712;49.506;10.400;2023-04-03T03:04:29;98891.03;;;6.25
64394;BMP280;50712;49.506;10.400;2023-04-03T03:05:00;98890.28;;;6.24
64394;BMP280;50712;49.506;10.400;2023-04-03T03:05:31;98894.91;;;6.24
64394;BMP280;50712;49.506;10.400;2023-04-03T03:06:11;98896.44;;;6.25
64394;BMP280;50712;49.506;10.400;2023-04-03T03:06:43;98892.22;;;6.24
64394;BMP280;50712;49.506;10.400;2023-04-03T03:07:14;98891.44;;;6.23